PWSweather.com
Personal Weather Stations
Station Observations
IPORTUGA89
BarosaPT

BarosaPT

Lat: 39.754028, Lon: -8.843

Elevation: 98

Station Type: Davis Vp2

High Low Average
Temperature 66.2°F19.0°C 38.7°F3.7°C 53.7°F12.1°C
Dew Point 51.8°F11.0°C 34.9°F1.6°C 42.5°F5.8°C
Winds 17.0 mph 27.4 kmh Calm Calm 6.0 mph SE9.7 kmh SE
Wind Gusts 33.1 mph53.3 kmh -- 11.0 mph17.7 kmh
Humidity 91% 39% 68%
Pressure 29.85 in1010.8 mb 29.63 in1003.4 mb -
Precipitation 0.13 in3.3 mm - -
Hour Temp Dew Point Humidity Winds Wind Gusts Pressure Precip Precip Rate Daily Precip Total
12:00 AM 42.1°F5.6°C 37.2°F2.9°C 83% Calm Calm -- 29.84 in1010.5 mb 0.00 in0.0 mm 0.00 in0.0 mm 0.00 in0.0 mm
12:11 AM 42.3°F5.7°C 37.4°F3.0°C 83% Calm Calm 2.0 mph3.2 kmh 29.84 in1010.5 mb 0.00 in0.0 mm 0.00 in0.0 mm 0.00 in0.0 mm
12:21 AM 42.4°F5.8°C 37.6°F3.1°C 83% Calm Calm -- 29.84 in1010.5 mb 0.00 in0.0 mm 0.00 in0.0 mm 0.00 in0.0 mm
12:31 AM 42.3°F5.7°C 37.2°F2.9°C 82% Calm Calm -- 29.84 in1010.5 mb 0.00 in0.0 mm 0.00 in0.0 mm 0.00 in0.0 mm
12:41 AM 41.5°F5.3°C 36.5°F2.5°C 82% Calm Calm 4.9 mph7.9 kmh 29.84 in1010.5 mb 0.00 in0.0 mm 0.00 in0.0 mm 0.00 in0.0 mm
12:51 AM 42.8°F6.0°C 37.8°F3.2°C 82% 2.9 mph SSW4.7 kmh SSW 4.9 mph7.9 kmh 29.84 in1010.5 mb 0.00 in0.0 mm 0.00 in0.0 mm 0.00 in0.0 mm
01:01 AM 42.8°F6.0°C 37.0°F2.8°C 80% 0.9 mph SSW1.4 kmh SSW 4.0 mph6.4 kmh 29.85 in1010.8 mb 0.00 in0.0 mm 0.00 in0.0 mm 0.00 in0.0 mm
01:11 AM 42.1°F5.6°C 36.3°F2.4°C 80% 0.9 mph SSW1.4 kmh SSW 2.9 mph4.7 kmh 29.85 in1010.8 mb 0.00 in0.0 mm 0.00 in0.0 mm 0.00 in0.0 mm
01:21 AM 41.4°F5.2°C 36.0°F2.2°C 81% 0.9 mph SSW1.4 kmh SSW 2.9 mph4.7 kmh 29.85 in1010.8 mb 0.00 in0.0 mm 0.00 in0.0 mm 0.00 in0.0 mm
01:31 AM 40.5°F4.7°C 35.8°F2.1°C 83% 2.0 mph SSW3.2 kmh SSW 4.0 mph6.4 kmh 29.84 in1010.5 mb 0.00 in0.0 mm 0.00 in0.0 mm 0.00 in0.0 mm
01:41 AM 40.5°F4.7°C 36.0°F2.2°C 84% 0.9 mph SSW1.4 kmh SSW 2.0 mph3.2 kmh 29.84 in1010.5 mb 0.00 in0.0 mm 0.00 in0.0 mm 0.00 in0.0 mm
01:51 AM 40.5°F4.7°C 35.8°F2.1°C 83% 0.9 mph SSW1.4 kmh SSW 2.0 mph3.2 kmh 29.84 in1010.5 mb 0.00 in0.0 mm 0.00 in0.0 mm 0.00 in0.0 mm
02:02 AM 39.9°F4.4°C 35.4°F1.9°C 84% Calm Calm 0.9 mph1.4 kmh 29.84 in1010.5 mb 0.00 in0.0 mm 0.00 in0.0 mm 0.00 in0.0 mm
02:12 AM 39.6°F4.2°C 35.1°F1.7°C 84% 0.9 mph SSW1.4 kmh SSW 2.0 mph3.2 kmh 29.84 in1010.5 mb 0.00 in0.0 mm 0.00 in0.0 mm 0.00 in0.0 mm
02:22 AM 39.6°F4.2°C 35.1°F1.7°C 84% Calm Calm -- 29.83 in1010.2 mb 0.00 in0.0 mm 0.00 in0.0 mm 0.00 in0.0 mm
02:32 AM 39.0°F3.9°C 34.9°F1.6°C 85% Calm Calm -- 29.83 in1010.2 mb 0.00 in0.0 mm 0.00 in0.0 mm 0.00 in0.0 mm
02:42 AM 38.7°F3.7°C 34.9°F1.6°C 86% Calm Calm -- 29.83 in1010.2 mb 0.00 in0.0 mm 0.00 in0.0 mm 0.00 in0.0 mm
02:52 AM 38.8°F3.8°C 35.1°F1.7°C 86% Calm Calm -- 29.82 in1009.8 mb 0.00 in0.0 mm 0.00 in0.0 mm 0.00 in0.0 mm
03:02 AM 39.4°F4.1°C 35.6°F2.0°C 86% 0.9 mph WSW1.4 kmh WSW 4.9 mph7.9 kmh 29.82 in1009.8 mb 0.00 in0.0 mm 0.00 in0.0 mm 0.00 in0.0 mm
03:12 AM 39.9°F4.4°C 35.8°F2.1°C 85% 2.9 mph WSW4.7 kmh WSW 4.9 mph7.9 kmh 29.82 in1009.8 mb 0.00 in0.0 mm 0.00 in0.0 mm 0.00 in0.0 mm
03:22 AM 40.8°F4.9°C 36.3°F2.4°C 84% 0.9 mph WSW1.4 kmh WSW 2.9 mph4.7 kmh 29.82 in1009.8 mb 0.00 in0.0 mm 0.00 in0.0 mm 0.00 in0.0 mm
03:32 AM 40.6°F4.8°C 36.0°F2.2°C 83% 0.9 mph WSW1.4 kmh WSW 2.9 mph4.7 kmh 29.82 in1009.8 mb 0.00 in0.0 mm 0.00 in0.0 mm 0.00 in0.0 mm
03:42 AM 40.6°F4.8°C 36.0°F2.2°C 83% Calm Calm 2.9 mph4.7 kmh 29.81 in1009.5 mb 0.00 in0.0 mm 0.00 in0.0 mm 0.00 in0.0 mm
03:52 AM 41.0°F5.0°C 36.0°F2.2°C 82% 0.9 mph NW1.4 kmh NW 2.9 mph4.7 kmh 29.81 in1009.5 mb 0.00 in0.0 mm 0.00 in0.0 mm 0.00 in0.0 mm
04:03 AM 41.5°F5.3°C 36.1°F2.3°C 81% 2.9 mph N4.7 kmh N 4.9 mph7.9 kmh 29.80 in1009.1 mb 0.00 in0.0 mm 0.00 in0.0 mm 0.00 in0.0 mm
04:13 AM 43.0°F6.1°C 36.7°F2.6°C 78% 4.0 mph NE6.4 kmh NE 6.9 mph11.1 kmh 29.80 in1009.1 mb 0.00 in0.0 mm 0.00 in0.0 mm 0.00 in0.0 mm
04:23 AM 44.4°F6.9°C 36.0°F2.2°C 72% 4.0 mph ENE6.4 kmh ENE 8.1 mph13.0 kmh 29.79 in1008.8 mb 0.00 in0.0 mm 0.00 in0.0 mm 0.00 in0.0 mm
04:33 AM 45.0°F7.2°C 36.1°F2.3°C 71% 2.0 mph N3.2 kmh N 4.0 mph6.4 kmh 29.78 in1008.5 mb 0.00 in0.0 mm 0.00 in0.0 mm 0.00 in0.0 mm
04:43 AM 44.8°F7.1°C 35.6°F2.0°C 70% 2.0 mph NE3.2 kmh NE 6.0 mph9.7 kmh 29.78 in1008.5 mb 0.00 in0.0 mm 0.00 in0.0 mm 0.00 in0.0 mm
04:53 AM 45.5°F7.5°C 36.0°F2.2°C 69% 2.9 mph E4.7 kmh E 8.1 mph13.0 kmh 29.78 in1008.5 mb 0.00 in0.0 mm 0.00 in0.0 mm 0.00 in0.0 mm
05:03 AM 47.1°F8.4°C 36.3°F2.4°C 66% 4.9 mph ESE7.9 kmh ESE 11.0 mph17.7 kmh 29.78 in1008.5 mb 0.00 in0.0 mm 0.00 in0.0 mm 0.00 in0.0 mm
05:13 AM 47.8°F8.8°C 36.7°F2.6°C 65% 4.0 mph ESE6.4 kmh ESE 11.0 mph17.7 kmh 29.78 in1008.5 mb 0.00 in0.0 mm 0.00 in0.0 mm 0.00 in0.0 mm
05:23 AM 48.0°F8.9°C 36.9°F2.7°C 65% 2.9 mph ESE4.7 kmh ESE 6.9 mph11.1 kmh 29.78 in1008.5 mb 0.00 in0.0 mm 0.00 in0.0 mm 0.00 in0.0 mm
05:33 AM 48.0°F8.9°C 37.6°F3.1°C 67% 2.0 mph NE3.2 kmh NE 6.9 mph11.1 kmh 29.78 in1008.5 mb 0.00 in0.0 mm 0.00 in0.0 mm 0.00 in0.0 mm
05:43 AM 48.4°F9.1°C 38.3°F3.5°C 68% 2.9 mph ENE4.7 kmh ENE 8.9 mph14.3 kmh 29.78 in1008.5 mb 0.00 in0.0 mm 0.00 in0.0 mm 0.00 in0.0 mm
05:53 AM 48.4°F9.1°C 38.3°F3.5°C 68% 2.0 mph NE3.2 kmh NE 8.9 mph14.3 kmh 29.77 in1008.1 mb 0.00 in0.0 mm 0.00 in0.0 mm 0.00 in0.0 mm
06:03 AM 47.3°F8.5°C 37.9°F3.3°C 70% 2.0 mph S3.2 kmh S 4.0 mph6.4 kmh 29.76 in1007.8 mb 0.00 in0.0 mm 0.00 in0.0 mm 0.00 in0.0 mm
06:13 AM 46.9°F8.3°C 38.7°F3.7°C 73% 2.0 mph SE3.2 kmh SE 8.1 mph13.0 kmh 29.76 in1007.8 mb 0.00 in0.0 mm 0.00 in0.0 mm 0.00 in0.0 mm
06:23 AM 49.3°F9.6°C 40.6°F4.8°C 72% 6.9 mph E11.1 kmh E 12.1 mph19.5 kmh 29.76 in1007.8 mb 0.00 in0.0 mm 0.00 in0.0 mm 0.00 in0.0 mm
06:33 AM 49.8°F9.9°C 40.5°F4.7°C 70% 4.9 mph E7.9 kmh E 10.1 mph16.3 kmh 29.75 in1007.5 mb 0.00 in0.0 mm 0.00 in0.0 mm 0.00 in0.0 mm
06:43 AM 50.2°F10.1°C 40.8°F4.9°C 70% 6.9 mph ESE11.1 kmh ESE 13.0 mph20.9 kmh 29.74 in1007.1 mb 0.00 in0.0 mm 0.00 in0.0 mm 0.00 in0.0 mm
06:53 AM 50.5°F10.3°C 40.8°F4.9°C 69% 6.9 mph SE11.1 kmh SE 16.1 mph25.9 kmh 29.75 in1007.5 mb 0.00 in0.0 mm 0.00 in0.0 mm 0.00 in0.0 mm
07:03 AM 50.5°F10.3°C 40.8°F4.9°C 69% 6.0 mph SE9.7 kmh SE 12.1 mph19.5 kmh 29.75 in1007.5 mb 0.00 in0.0 mm 0.00 in0.0 mm 0.00 in0.0 mm
07:13 AM 51.1°F10.6°C 41.7°F5.4°C 70% 8.1 mph E13.0 kmh E 17.9 mph28.8 kmh 29.75 in1007.5 mb 0.00 in0.0 mm 0.00 in0.0 mm 0.00 in0.0 mm
07:23 AM 52.3°F11.3°C 41.7°F5.4°C 67% 10.1 mph SE16.3 kmh SE 19.0 mph30.6 kmh 29.75 in1007.5 mb 0.00 in0.0 mm 0.00 in0.0 mm 0.00 in0.0 mm
07:33 AM 53.4°F11.9°C 41.2°F5.1°C 63% 14.1 mph SE22.7 kmh SE 25.9 mph41.7 kmh 29.75 in1007.5 mb 0.00 in0.0 mm 0.00 in0.0 mm 0.00 in0.0 mm
07:43 AM 53.8°F12.1°C 40.3°F4.6°C 60% 12.1 mph SE19.5 kmh SE 21.9 mph35.2 kmh 29.75 in1007.5 mb 0.00 in0.0 mm 0.00 in0.0 mm 0.00 in0.0 mm
07:53 AM 53.2°F11.8°C 39.7°F4.3°C 60% 10.1 mph SSE16.3 kmh SSE 19.0 mph30.6 kmh 29.75 in1007.5 mb 0.00 in0.0 mm 0.00 in0.0 mm 0.00 in0.0 mm
08:03 AM 53.1°F11.7°C 39.2°F4.0°C 59% 13.0 mph SE20.9 kmh SE 21.0 mph33.8 kmh 29.75 in1007.5 mb 0.00 in0.0 mm 0.00 in0.0 mm 0.00 in0.0 mm
08:13 AM 53.1°F11.7°C 39.2°F4.0°C 59% 13.0 mph SE20.9 kmh SE 23.0 mph37.0 kmh 29.75 in1007.5 mb 0.00 in0.0 mm 0.00 in0.0 mm 0.00 in0.0 mm
08:23 AM 53.2°F11.8°C 38.8°F3.8°C 58% 15.0 mph ESE24.1 kmh ESE 23.0 mph37.0 kmh 29.75 in1007.5 mb 0.00 in0.0 mm 0.00 in0.0 mm 0.00 in0.0 mm
08:33 AM 53.4°F11.9°C 39.0°F3.9°C 58% 13.0 mph SE20.9 kmh SE 19.9 mph32.0 kmh 29.75 in1007.5 mb 0.00 in0.0 mm 0.00 in0.0 mm 0.00 in0.0 mm
08:43 AM 53.4°F11.9°C 39.0°F3.9°C 58% 10.1 mph SE16.3 kmh SE 17.0 mph27.4 kmh 29.75 in1007.5 mb 0.00 in0.0 mm 0.00 in0.0 mm 0.00 in0.0 mm
08:53 AM 54.0°F12.2°C 39.6°F4.2°C 58% 11.0 mph SE17.7 kmh SE 19.0 mph30.6 kmh 29.75 in1007.5 mb 0.00 in0.0 mm 0.00 in0.0 mm 0.00 in0.0 mm
09:03 AM 54.1°F12.3°C 38.8°F3.8°C 56% 13.0 mph SE20.9 kmh SE 19.9 mph32.0 kmh 29.75 in1007.5 mb 0.00 in0.0 mm 0.00 in0.0 mm 0.00 in0.0 mm
09:13 AM 54.1°F12.3°C 38.3°F3.5°C 55% 12.1 mph SE19.5 kmh SE 19.9 mph32.0 kmh 29.75 in1007.5 mb 0.00 in0.0 mm 0.00 in0.0 mm 0.00 in0.0 mm
09:23 AM 54.7°F12.6°C 38.8°F3.8°C 55% 10.1 mph ESE16.3 kmh ESE 17.9 mph28.8 kmh 29.75 in1007.5 mb 0.00 in0.0 mm 0.00 in0.0 mm 0.00 in0.0 mm
09:33 AM 55.2°F12.9°C 39.4°F4.1°C 55% 10.1 mph SE16.3 kmh SE 17.9 mph28.8 kmh 29.74 in1007.1 mb 0.00 in0.0 mm 0.00 in0.0 mm 0.00 in0.0 mm
09:43 AM 56.5°F13.6°C 41.0°F5.0°C 56% 8.9 mph ESE14.3 kmh ESE 15.0 mph24.1 kmh 29.73 in1006.8 mb 0.00 in0.0 mm 0.00 in0.0 mm 0.00 in0.0 mm
09:53 AM 57.7°F14.3°C 40.6°F4.8°C 53% 12.1 mph E19.5 kmh E 23.9 mph38.5 kmh 29.72 in1006.4 mb 0.00 in0.0 mm 0.00 in0.0 mm 0.00 in0.0 mm
10:03 AM 58.5°F14.7°C 40.5°F4.7°C 51% 15.0 mph ESE24.1 kmh ESE 27.1 mph43.6 kmh 29.72 in1006.4 mb 0.00 in0.0 mm 0.00 in0.0 mm 0.00 in0.0 mm
10:13 AM 60.1°F15.6°C 41.9°F5.5°C 51% 15.0 mph ESE24.1 kmh ESE 25.1 mph40.4 kmh 29.72 in1006.4 mb 0.00 in0.0 mm 0.00 in0.0 mm 0.00 in0.0 mm
10:23 AM 60.4°F15.8°C 41.2°F5.1°C 49% 13.0 mph SE20.9 kmh SE 19.9 mph32.0 kmh 29.71 in1006.1 mb 0.00 in0.0 mm 0.00 in0.0 mm 0.00 in0.0 mm
10:33 AM 60.6°F15.9°C 40.8°F4.9°C 48% 14.1 mph SE22.7 kmh SE 23.0 mph37.0 kmh 29.71 in1006.1 mb 0.00 in0.0 mm 0.00 in0.0 mm 0.00 in0.0 mm
10:43 AM 60.6°F15.9°C 40.3°F4.6°C 47% 13.0 mph SE20.9 kmh SE 23.0 mph37.0 kmh 29.71 in1006.1 mb 0.00 in0.0 mm 0.00 in0.0 mm 0.00 in0.0 mm
10:53 AM 61.2°F16.2°C 40.8°F4.9°C 47% 12.1 mph SE19.5 kmh SE 19.0 mph30.6 kmh 29.71 in1006.1 mb 0.00 in0.0 mm 0.00 in0.0 mm 0.00 in0.0 mm
11:03 AM 61.3°F16.3°C 40.5°F4.7°C 46% 14.1 mph SE22.7 kmh SE 21.0 mph33.8 kmh 29.71 in1006.1 mb 0.00 in0.0 mm 0.00 in0.0 mm 0.00 in0.0 mm
11:13 AM 62.1°F16.7°C 39.9°F4.4°C 44% 12.1 mph SE19.5 kmh SE 21.0 mph33.8 kmh 29.71 in1006.1 mb 0.00 in0.0 mm 0.00 in0.0 mm 0.00 in0.0 mm
11:23 AM 62.8°F17.1°C 39.4°F4.1°C 42% 16.1 mph SE25.9 kmh SE 33.1 mph53.3 kmh 29.70 in1005.8 mb 0.00 in0.0 mm 0.00 in0.0 mm 0.00 in0.0 mm
11:33 AM 62.6°F17.0°C 39.7°F4.3°C 43% 16.1 mph SE25.9 kmh SE 27.1 mph43.6 kmh 29.71 in1006.1 mb 0.00 in0.0 mm 0.00 in0.0 mm 0.00 in0.0 mm
11:43 AM 63.0°F17.2°C 39.6°F4.2°C 42% 17.0 mph SE27.4 kmh SE 30.0 mph48.3 kmh 29.70 in1005.8 mb 0.00 in0.0 mm 0.00 in0.0 mm 0.00 in0.0 mm
11:53 AM 62.4°F16.9°C 39.6°F4.2°C 43% 16.1 mph SE25.9 kmh SE 25.1 mph40.4 kmh 29.70 in1005.8 mb 0.00 in0.0 mm 0.00 in0.0 mm 0.00 in0.0 mm
12:03 PM 63.0°F17.2°C 40.1°F4.5°C 43% 16.1 mph ESE25.9 kmh ESE 25.9 mph41.7 kmh 29.69 in1005.4 mb 0.00 in0.0 mm 0.00 in0.0 mm 0.00 in0.0 mm
12:13 PM 63.3°F17.4°C 39.2°F4.0°C 41% 16.1 mph SE25.9 kmh SE 28.0 mph45.1 kmh 29.69 in1005.4 mb 0.00 in0.0 mm 0.00 in0.0 mm 0.00 in0.0 mm
12:23 PM 63.1°F17.3°C 39.0°F3.9°C 41% 15.0 mph SE24.1 kmh SE 23.9 mph38.5 kmh 29.69 in1005.4 mb 0.00 in0.0 mm 0.00 in0.0 mm 0.00 in0.0 mm
12:33 PM 64.6°F18.1°C 41.0°F5.0°C 42% 15.0 mph SE24.1 kmh SE 27.1 mph43.6 kmh 29.68 in1005.1 mb 0.00 in0.0 mm 0.00 in0.0 mm 0.00 in0.0 mm
12:44 PM 65.8°F18.8°C 42.1°F5.6°C 42% 15.0 mph SE24.1 kmh SE 23.9 mph38.5 kmh 29.67 in1004.7 mb 0.00 in0.0 mm 0.00 in0.0 mm 0.00 in0.0 mm
12:54 PM 65.1°F18.4°C 40.3°F4.6°C 40% 17.0 mph SE27.4 kmh SE 23.0 mph37.0 kmh 29.67 in1004.7 mb 0.00 in0.0 mm 0.00 in0.0 mm 0.00 in0.0 mm
01:04 PM 64.2°F17.9°C 41.2°F5.1°C 43% 13.0 mph ESE20.9 kmh ESE 19.0 mph30.6 kmh 29.67 in1004.7 mb 0.00 in0.0 mm 0.00 in0.0 mm 0.00 in0.0 mm
01:14 PM 65.1°F18.4°C 41.5°F5.3°C 42% 10.1 mph SE16.3 kmh SE 17.9 mph28.8 kmh 29.66 in1004.4 mb 0.00 in0.0 mm 0.00 in0.0 mm 0.00 in0.0 mm
01:24 PM 66.2°F19.0°C 40.5°F4.7°C 39% 12.1 mph SE19.5 kmh SE 23.9 mph38.5 kmh 29.66 in1004.4 mb 0.00 in0.0 mm 0.00 in0.0 mm 0.00 in0.0 mm
01:34 PM 65.5°F18.6°C 39.9°F4.4°C 39% 15.0 mph SE24.1 kmh SE 23.9 mph38.5 kmh 29.66 in1004.4 mb 0.00 in0.0 mm 0.00 in0.0 mm 0.00 in0.0 mm
01:44 PM 64.9°F18.3°C 40.6°F4.8°C 41% 16.1 mph SE25.9 kmh SE 23.9 mph38.5 kmh 29.66 in1004.4 mb 0.00 in0.0 mm 0.00 in0.0 mm 0.00 in0.0 mm
01:54 PM 64.8°F18.2°C 40.5°F4.7°C 41% 12.1 mph SE19.5 kmh SE 19.9 mph32.0 kmh 29.65 in1004.1 mb 0.00 in0.0 mm 0.00 in0.0 mm 0.00 in0.0 mm
02:04 PM 64.8°F18.2°C 39.9°F4.4°C 40% 13.0 mph SE20.9 kmh SE 21.0 mph33.8 kmh 29.65 in1004.1 mb 0.00 in0.0 mm 0.00 in0.0 mm 0.00 in0.0 mm
02:14 PM 64.6°F18.1°C 39.7°F4.3°C 40% 13.0 mph SSE20.9 kmh SSE 25.1 mph40.4 kmh 29.65 in1004.1 mb 0.00 in0.0 mm 0.00 in0.0 mm 0.00 in0.0 mm
02:24 PM 64.6°F18.1°C 40.3°F4.6°C 41% 14.1 mph SE22.7 kmh SE 25.9 mph41.7 kmh 29.65 in1004.1 mb 0.00 in0.0 mm 0.00 in0.0 mm 0.00 in0.0 mm
02:34 PM 64.4°F18.0°C 40.8°F4.9°C 42% 14.1 mph SSE22.7 kmh SSE 23.0 mph37.0 kmh 29.65 in1004.1 mb 0.00 in0.0 mm 0.00 in0.0 mm 0.00 in0.0 mm
02:44 PM 64.2°F17.9°C 41.2°F5.1°C 43% 12.1 mph SE19.5 kmh SE 21.0 mph33.8 kmh 29.65 in1004.1 mb 0.00 in0.0 mm 0.00 in0.0 mm 0.00 in0.0 mm
02:54 PM 64.2°F17.9°C 42.4°F5.8°C 45% 11.0 mph SE17.7 kmh SE 19.0 mph30.6 kmh 29.65 in1004.1 mb 0.00 in0.0 mm 0.00 in0.0 mm 0.00 in0.0 mm
03:04 PM 64.0°F17.8°C 41.7°F5.4°C 44% 12.1 mph ESE19.5 kmh ESE 19.0 mph30.6 kmh 29.65 in1004.1 mb 0.00 in0.0 mm 0.00 in0.0 mm 0.00 in0.0 mm
03:14 PM 64.0°F17.8°C 42.3°F5.7°C 45% 11.0 mph SSE17.7 kmh SSE 17.0 mph27.4 kmh 29.64 in1003.7 mb 0.00 in0.0 mm 0.00 in0.0 mm 0.00 in0.0 mm
03:24 PM 64.0°F17.8°C 42.3°F5.7°C 45% 8.9 mph SE14.3 kmh SE 17.0 mph27.4 kmh 29.64 in1003.7 mb 0.00 in0.0 mm 0.00 in0.0 mm 0.00 in0.0 mm
03:34 PM 63.9°F17.7°C 42.6°F5.9°C 46% 11.0 mph SE17.7 kmh SE 19.9 mph32.0 kmh 29.64 in1003.7 mb 0.00 in0.0 mm 0.00 in0.0 mm 0.00 in0.0 mm
03:44 PM 63.7°F17.6°C 43.7°F6.5°C 48% 10.1 mph SSE16.3 kmh SSE 16.1 mph25.9 kmh 29.64 in1003.7 mb 0.00 in0.0 mm 0.00 in0.0 mm 0.00 in0.0 mm
03:54 PM 63.1°F17.3°C 44.2°F6.8°C 50% 8.9 mph S14.3 kmh S 15.0 mph24.1 kmh 29.63 in1003.4 mb 0.00 in0.0 mm 0.00 in0.0 mm 0.00 in0.0 mm
04:04 PM 62.8°F17.1°C 45.3°F7.4°C 53% 8.9 mph SE14.3 kmh SE 14.1 mph22.7 kmh 29.63 in1003.4 mb 0.00 in0.0 mm 0.00 in0.0 mm 0.00 in0.0 mm
04:14 PM 62.2°F16.8°C 45.3°F7.4°C 54% 10.1 mph S16.3 kmh S 16.1 mph25.9 kmh 29.63 in1003.4 mb 0.00 in0.0 mm 0.00 in0.0 mm 0.00 in0.0 mm
04:24 PM 62.2°F16.8°C 45.3°F7.4°C 54% 8.1 mph SE13.0 kmh SE 15.0 mph24.1 kmh 29.63 in1003.4 mb 0.00 in0.0 mm 0.00 in0.0 mm 0.00 in0.0 mm
04:34 PM 62.2°F16.8°C 45.0°F7.2°C 53% 6.9 mph SE11.1 kmh SE 11.0 mph17.7 kmh 29.63 in1003.4 mb 0.00 in0.0 mm 0.00 in0.0 mm 0.00 in0.0 mm
04:44 PM 62.1°F16.7°C 45.1°F7.3°C 54% 6.0 mph S9.7 kmh S 11.0 mph17.7 kmh 29.64 in1003.7 mb 0.00 in0.0 mm 0.00 in0.0 mm 0.00 in0.0 mm
04:54 PM 61.3°F16.3°C 46.9°F8.3°C 59% 6.0 mph S9.7 kmh S 13.0 mph20.9 kmh 29.64 in1003.7 mb 0.00 in0.0 mm 0.00 in0.0 mm 0.00 in0.0 mm
05:04 PM 59.5°F15.3°C 48.6°F9.2°C 67% 4.9 mph S7.9 kmh S 8.1 mph13.0 kmh 29.65 in1004.1 mb 0.01 in0.3 mm 0.01 in0.3 mm 0.01 in0.3 mm
05:14 PM 57.7°F14.3°C 49.5°F9.7°C 74% 4.0 mph SE6.4 kmh SE 10.1 mph16.3 kmh 29.64 in1003.7 mb 0.02 in0.5 mm 0.06 in1.5 mm 0.02 in0.5 mm
05:24 PM 57.0°F13.9°C 48.7°F9.3°C 74% 4.9 mph SE7.9 kmh SE 12.1 mph19.5 kmh 29.65 in1004.1 mb 0.03 in0.8 mm 0.06 in1.5 mm 0.03 in0.8 mm
05:34 PM 56.1°F13.4°C 49.3°F9.6°C 78% 2.0 mph SSE3.2 kmh SSE 4.9 mph7.9 kmh 29.65 in1004.1 mb 0.05 in1.3 mm 0.12 in3.0 mm 0.05 in1.3 mm
05:44 PM 55.6°F13.1°C 49.8°F9.9°C 81% Calm Calm -- 29.65 in1004.1 mb 0.06 in1.5 mm 0.06 in1.5 mm 0.06 in1.5 mm
05:54 PM 55.4°F13.0°C 50.0°F10.0°C 82% Calm Calm -- 29.65 in1004.1 mb 0.07 in1.8 mm 0.06 in1.5 mm 0.07 in1.8 mm
06:04 PM 54.7°F12.6°C 49.6°F9.8°C 83% Calm Calm -- 29.65 in1004.1 mb 0.08 in2.0 mm 0.01 in0.3 mm 0.09 in2.3 mm
06:14 PM 54.7°F12.6°C 50.0°F10.0°C 84% Calm Calm -- 29.65 in1004.1 mb 0.09 in2.3 mm 0.06 in1.5 mm 0.11 in2.8 mm
06:25 PM 55.0°F12.8°C 50.0°F10.0°C 83% Calm Calm -- 29.65 in1004.1 mb 0.09 in2.3 mm 0.00 in0.0 mm 0.12 in3.0 mm
06:35 PM 54.9°F12.7°C 49.8°F9.9°C 83% 2.0 mph ESE3.2 kmh ESE 6.9 mph11.1 kmh 29.65 in1004.1 mb 0.08 in2.0 mm 0.00 in0.0 mm 0.13 in3.3 mm
06:45 PM 54.7°F12.6°C 50.0°F10.0°C 84% Calm Calm 6.0 mph9.7 kmh 29.65 in1004.1 mb 0.06 in1.5 mm 0.00 in0.0 mm 0.13 in3.3 mm
06:55 PM 54.7°F12.6°C 50.0°F10.0°C 84% Calm Calm -- 29.65 in1004.1 mb 0.06 in1.5 mm 0.00 in0.0 mm 0.13 in3.3 mm
07:05 PM 54.3°F12.4°C 49.8°F9.9°C 85% Calm Calm -- 29.65 in1004.1 mb 0.04 in1.0 mm 0.00 in0.0 mm 0.13 in3.3 mm
07:15 PM 54.0°F12.2°C 50.2°F10.1°C 87% Calm Calm -- 29.65 in1004.1 mb 0.02 in0.5 mm 0.00 in0.0 mm 0.13 in3.3 mm
07:25 PM 53.8°F12.1°C 50.4°F10.2°C 88% Calm Calm 0.9 mph1.4 kmh 29.65 in1004.1 mb 0.02 in0.5 mm 0.00 in0.0 mm 0.13 in3.3 mm
07:36 PM 53.4°F11.9°C 50.0°F10.0°C 88% Calm Calm -- 29.65 in1004.1 mb 0.01 in0.3 mm 0.00 in0.0 mm 0.13 in3.3 mm
07:46 PM 53.1°F11.7°C 49.8°F9.9°C 89% Calm Calm -- 29.65 in1004.1 mb 0.01 in0.3 mm 0.00 in0.0 mm 0.13 in3.3 mm
07:56 PM 52.9°F11.6°C 49.6°F9.8°C 89% Calm Calm -- 29.65 in1004.1 mb 0.01 in0.3 mm 0.00 in0.0 mm 0.13 in3.3 mm
08:06 PM 53.1°F11.7°C 50.2°F10.1°C 90% Calm Calm -- 29.65 in1004.1 mb 0.01 in0.3 mm 0.00 in0.0 mm 0.13 in3.3 mm
08:16 PM 53.2°F11.8°C 50.4°F10.2°C 90% Calm Calm 2.9 mph4.7 kmh 29.65 in1004.1 mb 0.00 in0.0 mm 0.00 in0.0 mm 0.13 in3.3 mm
08:26 PM 53.8°F12.1°C 50.5°F10.3°C 89% Calm Calm 11.0 mph17.7 kmh 29.65 in1004.1 mb 0.00 in0.0 mm 0.00 in0.0 mm 0.13 in3.3 mm
08:36 PM 54.5°F12.5°C 50.4°F10.2°C 86% 4.0 mph SE6.4 kmh SE 13.0 mph20.9 kmh 29.65 in1004.1 mb 0.00 in0.0 mm 0.00 in0.0 mm 0.13 in3.3 mm
08:46 PM 54.9°F12.7°C 50.4°F10.2°C 85% Calm Calm -- 29.66 in1004.4 mb 0.00 in0.0 mm 0.00 in0.0 mm 0.13 in3.3 mm
08:56 PM 54.7°F12.6°C 50.2°F10.1°C 85% 0.9 mph SE1.4 kmh SE 6.0 mph9.7 kmh 29.66 in1004.4 mb 0.00 in0.0 mm 0.00 in0.0 mm 0.13 in3.3 mm
09:06 PM 54.7°F12.6°C 50.5°F10.3°C 86% 2.0 mph SE3.2 kmh SE 4.0 mph6.4 kmh 29.66 in1004.4 mb 0.00 in0.0 mm 0.00 in0.0 mm 0.13 in3.3 mm
09:16 PM 54.3°F12.4°C 50.2°F10.1°C 86% 4.0 mph ESE6.4 kmh ESE 6.9 mph11.1 kmh 29.66 in1004.4 mb 0.00 in0.0 mm 0.00 in0.0 mm 0.13 in3.3 mm
09:26 PM 54.1°F12.3°C 50.4°F10.2°C 87% 2.0 mph E3.2 kmh E 6.9 mph11.1 kmh 29.66 in1004.4 mb 0.00 in0.0 mm 0.00 in0.0 mm 0.13 in3.3 mm
09:37 PM 54.1°F12.3°C 50.7°F10.4°C 88% Calm Calm -- 29.67 in1004.7 mb 0.00 in0.0 mm 0.00 in0.0 mm 0.13 in3.3 mm
09:47 PM 54.0°F12.2°C 50.5°F10.3°C 88% Calm Calm 2.9 mph4.7 kmh 29.67 in1004.7 mb 0.00 in0.0 mm 0.00 in0.0 mm 0.13 in3.3 mm
09:57 PM 54.0°F12.2°C 50.7°F10.4°C 89% 0.9 mph E1.4 kmh E 4.0 mph6.4 kmh 29.67 in1004.7 mb 0.00 in0.0 mm 0.00 in0.0 mm 0.13 in3.3 mm
10:07 PM 54.0°F12.2°C 50.7°F10.4°C 89% Calm Calm -- 29.66 in1004.4 mb 0.00 in0.0 mm 0.00 in0.0 mm 0.13 in3.3 mm
10:17 PM 54.1°F12.3°C 50.9°F10.5°C 89% Calm Calm -- 29.67 in1004.7 mb 0.00 in0.0 mm 0.00 in0.0 mm 0.13 in3.3 mm
10:27 PM 54.0°F12.2°C 51.1°F10.6°C 90% Calm Calm 0.9 mph1.4 kmh 29.66 in1004.4 mb 0.00 in0.0 mm 0.00 in0.0 mm 0.13 in3.3 mm
10:37 PM 54.3°F12.4°C 51.4°F10.8°C 90% Calm Calm -- 29.67 in1004.7 mb 0.00 in0.0 mm 0.00 in0.0 mm 0.13 in3.3 mm
10:47 PM 54.7°F12.6°C 51.4°F10.8°C 89% Calm Calm -- 29.67 in1004.7 mb 0.00 in0.0 mm 0.00 in0.0 mm 0.13 in3.3 mm
10:58 PM 54.7°F12.6°C 51.8°F11.0°C 90% Calm Calm -- 29.67 in1004.7 mb 0.00 in0.0 mm 0.00 in0.0 mm 0.13 in3.3 mm
11:08 PM 54.9°F12.7°C 51.6°F10.9°C 89% Calm Calm -- 29.66 in1004.4 mb 0.00 in0.0 mm 0.00 in0.0 mm 0.13 in3.3 mm
11:18 PM 54.7°F12.6°C 51.8°F11.0°C 90% Calm Calm -- 29.66 in1004.4 mb 0.00 in0.0 mm 0.00 in0.0 mm 0.13 in3.3 mm
11:28 PM 54.7°F12.6°C 51.8°F11.0°C 90% Calm Calm -- 29.66 in1004.4 mb 0.00 in0.0 mm 0.00 in0.0 mm 0.13 in3.3 mm
11:38 PM 54.3°F12.4°C 51.4°F10.8°C 90% Calm Calm -- 29.66 in1004.4 mb 0.00 in0.0 mm 0.00 in0.0 mm 0.13 in3.3 mm
11:49 PM 54.1°F12.3°C 51.3°F10.7°C 90% Calm Calm -- 29.66 in1004.4 mb 0.00 in0.0 mm 0.00 in0.0 mm 0.13 in3.3 mm
11:59 PM 53.8°F12.1°C 51.3°F10.7°C 91% Calm Calm -- 29.66 in1004.4 mb 0.00 in0.0 mm 0.00 in0.0 mm 0.13 in3.3 mm